This is the latest recevied weather packets stored in our database for station/object E22ZMG-1. If no packets are shown the sender has not sent any weather packets the latest 10 day(s).
| Time | Temp. | Humidity | Pressure | Rain* | Wind** | Luminosity | Snow |
|---|---|---|---|---|---|---|---|
| 1777229547 | 31.67° C | 55% | 973 hPa | - | - | 0 W/m² | - |
| 1777228922 | 32.22° C | 53% | 973 hPa | - | - | 0 W/m² | - |
| 1777228296 | 32.22° C | 55% | 973 hPa | - | - | 0 W/m² | - |
| 1777227672 | 32.78° C | 55% | 973 hPa | - | - | 0 W/m² | - |
| 1777227047 | 31.67° C | 58% | 974 hPa | - | - | 0 W/m² | - |
| 1777226422 | 31.11° C | 60% | 974 hPa | - | - | 0 W/m² | - |
| 1777225797 | 31.67° C | 60% | 974 hPa | - | - | 0 W/m² | - |
| 1777225173 | 31.67° C | 61% | 974 hPa | - | - | 0 W/m² | - |
| 1777224548 | 32.22° C | 59% | 974 hPa | - | - | 0 W/m² | - |
| 1777223923 | 32.78° C | 57% | 974 hPa | - | - | 0 W/m² | - |
| 1777223299 | 33.89° C | 55% | 974 hPa | - | - | 0 W/m² | - |
| 1777222671 | 33.33° C | 56% | 974 hPa | - | - | 0 W/m² | - |
| 1777222378 | 33.33° C | 56% | 974 hPa | - | - | 0 W/m² | - |
| 1777221753 | 33.33° C | 55% | 974 hPa | - | - | 0 W/m² | - |
| 1777221127 | 33.33° C | 56% | 974 hPa | - | - | 0 W/m² | - |
| 1777220503 | 33.89° C | 54% | 974 hPa | - | - | 0 W/m² | - |
| 1777219877 | 33.89° C | 53% | 974 hPa | - | - | 0 W/m² | - |
| 1777219251 | 33.89° C | 53% | 974 hPa | - | - | 0 W/m² | - |
| 1777218626 | 34.44° C | 47% | 974 hPa | - | - | 0 W/m² | - |
| 1777218001 | 35° C | 45% | 974 hPa | - | - | 0 W/m² | - |
| 1777217376 | 34.44° C | 46% | 974 hPa | - | - | 0 W/m² | - |
| 1777216750 | 35° C | 46% | 974 hPa | - | - | 0 W/m² | - |
| 1777216125 | 35° C | 46% | 974 hPa | - | - | 0 W/m² | - |
| 1777215501 | 35° C | 47% | 973 hPa | - | - | 0 W/m² | - |
| 1777214876 | 35° C | 48% | 974 hPa | - | - | 0 W/m² | - |
* Rain since midnight (hover to see other rain measurements)
** Current wind speed in m/s (hover to see current wind gust speed)